createdAt,value
2022-11-02T00:00:20.328Z,14.32
2022-11-02T00:03:08.121Z,21.63
2022-11-02T00:05:55.731Z,24.95
2022-11-02T00:08:42.813Z,19.15
2022-11-02T00:11:30.098Z,19.45
2022-11-02T00:14:17.188Z,17.05
2022-11-02T00:17:07.661Z,23.38
2022-11-02T00:19:54.832Z,19.25
2022-11-02T00:22:43.026Z,23.75
2022-11-02T00:25:37.468Z,28.50
2022-11-02T00:28:24.914Z,18.02
2022-11-02T00:31:12.091Z,20.20
2022-11-02T00:33:59.355Z,21.52
2022-11-02T00:36:55.204Z,15.88
2022-11-02T00:39:42.768Z,19.30
2022-11-02T00:42:29.983Z,18.60
2022-11-02T00:45:17.455Z,13.95
2022-11-02T00:48:05.463Z,13.70
2022-11-02T00:50:55.517Z,17.42
2022-11-02T00:53:45.182Z,13.73
2022-11-02T00:56:32.309Z,14.05
2022-11-02T00:59:21.955Z,15.32
2022-11-02T01:02:11.917Z,15.18
2022-11-02T01:05:01.400Z,14.75
2022-11-02T01:07:52.117Z,13.63
2022-11-02T01:10:48.360Z,11.23
2022-11-02T01:13:35.676Z,10.45
2022-11-02T01:16:22.983Z,9.38
2022-11-02T01:19:11.522Z,17.65
2022-11-02T01:21:58.850Z,7.22
2022-11-02T01:24:45.958Z,9.73
2022-11-02T01:27:33.037Z,16.00
2022-11-02T01:30:20.324Z,12.15
2022-11-02T01:33:07.414Z,14.90
2022-11-02T01:35:55.487Z,8.43
2022-11-02T01:38:42.562Z,10.10
2022-11-02T01:41:29.934Z,8.50
2022-11-02T01:44:34.679Z,11.80
2022-11-02T01:47:32.212Z,10.77
2022-11-02T01:50:22.736Z,11.90
2022-11-02T01:53:10.045Z,9.27
2022-11-02T01:55:57.347Z,9.93
2022-11-02T01:58:47.675Z,15.85
2022-11-02T02:01:34.978Z,9.75
2022-11-02T02:04:26.153Z,5.82
2022-11-02T02:07:17.175Z,12.23
2022-11-02T02:10:05.324Z,12.38
2022-11-02T02:12:52.771Z,12.55
2022-11-02T02:15:57.791Z,9.52
2022-11-02T02:18:52.411Z,10.73
2022-11-02T02:21:54.831Z,13.52
2022-11-02T02:24:58.222Z,9.55
2022-11-02T02:28:07.215Z,12.07
2022-11-02T02:30:56.882Z,9.52
2022-11-02T02:33:46.826Z,14.60
2022-11-02T02:36:57.104Z,15.13
2022-11-02T02:39:57.671Z,9.55
2022-11-02T02:42:51.770Z,15.70
2022-11-02T02:45:44.694Z,9.82
2022-11-02T02:48:34.163Z,10.88
2022-11-02T02:51:28.704Z,10.43
2022-11-02T02:54:27.794Z,4.97
2022-11-02T02:57:18.517Z,8.68
2022-11-02T03:00:12.001Z,10.27
2022-11-02T03:03:02.901Z,9.00
2022-11-02T03:06:16.939Z,7.93
2022-11-02T03:09:32.739Z,7.88
2022-11-02T03:12:35.254Z,10.70
2022-11-02T03:15:48.952Z,13.35
2022-11-02T03:18:53.627Z,8.00
2022-11-02T03:21:43.472Z,7.15
2022-11-02T03:24:37.279Z,7.43
2022-11-02T03:27:38.668Z,6.97
2022-11-02T03:30:31.192Z,9.57
2022-11-02T03:33:32.301Z,5.40
2022-11-02T03:36:30.134Z,4.22
2022-11-02T03:39:25.042Z,13.27
2022-11-02T03:42:18.833Z,8.75
2022-11-02T03:45:19.090Z,11.25
2022-11-02T03:48:10.897Z,12.82
2022-11-02T03:51:03.529Z,9.27
2022-11-02T03:54:08.316Z,11.70
2022-11-02T03:56:58.281Z,8.32
2022-11-02T03:59:45.516Z,10.48
2022-11-02T04:02:37.651Z,8.70
2022-11-02T04:05:35.609Z,11.55
2022-11-02T04:08:37.671Z,13.38
2022-11-02T04:11:43.916Z,13.17
2022-11-02T04:14:40.298Z,10.52
2022-11-02T04:17:46.065Z,9.20
2022-11-02T04:20:35.348Z,5.60
2022-11-02T04:23:40.823Z,10.13
2022-11-02T04:26:28.152Z,10.73
2022-11-02T04:29:15.221Z,7.00
2022-11-02T04:32:08.468Z,15.02
2022-11-02T04:34:55.589Z,11.07
2022-11-02T04:38:05.213Z,9.75
2022-11-02T04:41:13.754Z,6.28
2022-11-02T04:44:01.584Z,9.05
2022-11-02T04:46:51.936Z,9.65
2022-11-02T04:49:38.937Z,6.13
2022-11-02T04:52:26.018Z,9.73
2022-11-02T04:55:13.088Z,8.85
2022-11-02T04:58:00.251Z,12.25
2022-11-02T05:00:49.802Z,12.68
2022-11-02T05:03:36.856Z,9.07
2022-11-02T05:06:24.876Z,10.25
2022-11-02T05:09:12.077Z,5.50
2022-11-02T05:11:59.583Z,7.70
2022-11-02T05:14:46.611Z,10.50
2022-11-02T05:17:33.905Z,11.00
2022-11-02T05:20:21.142Z,12.07
2022-11-02T05:23:08.680Z,7.88
2022-11-02T05:26:07.352Z,11.13
2022-11-02T05:28:54.439Z,7.90
2022-11-02T05:31:45.715Z,7.78
2022-11-02T05:34:33.187Z,8.35
2022-11-02T05:37:20.268Z,13.88
2022-11-02T05:40:08.784Z,8.07
2022-11-02T05:43:02.106Z,13.73
2022-11-02T05:45:57.799Z,14.57
2022-11-02T05:48:44.992Z,13.23
2022-11-02T05:51:32.050Z,12.43
2022-11-02T05:54:20.908Z,11.23
2022-11-02T05:57:08.002Z,8.07
2022-11-02T05:59:56.150Z,9.05
2022-11-02T06:02:43.389Z,10.05
2022-11-02T06:05:30.585Z,10.80
2022-11-02T06:08:22.394Z,11.40
2022-11-02T06:11:13.201Z,7.47
2022-11-02T06:14:00.683Z,9.93
2022-11-02T06:16:47.864Z,11.07
2022-11-02T06:19:37.086Z,10.52
2022-11-02T06:22:24.268Z,11.98
2022-11-02T06:25:12.062Z,11.57
2022-11-02T06:27:59.966Z,10.15
2022-11-02T06:30:54.661Z,11.60
2022-11-02T06:33:42.132Z,11.57
2022-11-02T06:36:31.346Z,10.90
2022-11-02T06:39:18.454Z,11.25
2022-11-02T06:42:07.848Z,16.13
2022-11-02T06:44:55.518Z,14.05
2022-11-02T06:47:42.675Z,12.05
2022-11-02T06:50:33.030Z,14.73
2022-11-02T06:53:27.469Z,9.38
2022-11-02T06:56:15.036Z,6.88
2022-11-02T06:59:04.635Z,10.70
2022-11-02T07:02:02.345Z,13.52
2022-11-02T07:04:53.244Z,13.73
2022-11-02T07:07:43.807Z,13.00
2022-11-02T07:10:38.128Z,12.50
2022-11-02T07:13:25.762Z,10.63
2022-11-02T07:16:12.948Z,11.20
2022-11-02T07:19:01.447Z,8.95
2022-11-02T07:21:56.157Z,11.02
2022-11-02T07:24:43.301Z,12.35
2022-11-02T07:27:30.793Z,10.52
2022-11-02T07:30:20.720Z,9.50
2022-11-02T07:33:20.165Z,14.77
2022-11-02T07:36:10.439Z,10.02
2022-11-02T07:38:58.937Z,15.25
2022-11-02T07:41:53.063Z,12.52
2022-11-02T07:44:40.374Z,9.48
2022-11-02T07:47:27.805Z,11.70
2022-11-02T07:50:22.823Z,12.80
2022-11-02T07:53:12.769Z,13.25
2022-11-02T07:56:04.430Z,12.98
2022-11-02T07:58:54.057Z,9.05
2022-11-02T08:01:43.691Z,8.40
2022-11-02T08:04:40.871Z,9.63
2022-11-02T08:07:34.656Z,6.82
2022-11-02T08:10:28.070Z,11.90
2022-11-02T08:13:21.199Z,8.70
2022-11-02T08:16:08.438Z,9.40
2022-11-02T08:19:07.673Z,8.93
2022-11-02T08:21:57.265Z,8.73
2022-11-02T08:24:44.619Z,8.15
2022-11-02T08:27:31.837Z,9.25
2022-11-02T08:30:21.791Z,9.63
2022-11-02T08:33:15.829Z,10.75
2022-11-02T08:36:09.718Z,5.25
2022-11-02T08:39:27.500Z,8.80
2022-11-02T08:42:13.495Z,7.13
2022-11-02T08:45:02.831Z,11.98
2022-11-02T08:47:50.700Z,9.63
2022-11-02T08:50:38.030Z,12.20
2022-11-02T08:53:25.329Z,9.07
2022-11-02T08:56:12.508Z,14.80
2022-11-02T08:58:59.739Z,13.50
2022-11-02T09:01:47.034Z,8.35
2022-11-02T09:04:34.704Z,14.98
2022-11-02T09:07:23.184Z,7.90
2022-11-02T09:10:10.457Z,9.48
2022-11-02T09:13:00.338Z,9.10
2022-11-02T09:15:50.267Z,12.35
2022-11-02T09:18:40.250Z,9.75
2022-11-02T09:21:27.555Z,9.32
2022-11-02T09:24:16.963Z,7.38
2022-11-02T09:27:04.323Z,7.07
2022-11-02T09:29:51.543Z,5.82
2022-11-02T09:32:39.860Z,12.93
2022-11-02T09:35:31.060Z,6.63
2022-11-02T09:38:18.719Z,6.90
2022-11-02T09:41:22.639Z,5.95
2022-11-02T09:44:37.686Z,9.63
2022-11-02T09:50:47.305Z,7.38
2022-11-02T09:54:02.722Z,9.13
2022-11-02T09:56:52.370Z,6.93
2022-11-02T09:59:43.651Z,12.88
2022-11-02T10:02:50.494Z,10.82
2022-11-02T10:05:50.108Z,7.65
2022-11-02T10:09:10.746Z,9.40
2022-11-02T10:12:18.993Z,8.48
2022-11-02T10:15:15.104Z,9.48
2022-11-02T10:18:03.978Z,7.75
2022-11-02T10:20:59.738Z,9.45
2022-11-02T10:23:59.468Z,11.48
2022-11-02T10:26:47.841Z,9.35
2022-11-02T10:30:02.311Z,13.57
2022-11-02T10:32:56.121Z,7.70
2022-11-02T10:36:17.347Z,7.47
2022-11-02T10:39:41.014Z,10.77
2022-11-02T10:43:01.586Z,11.27
2022-11-02T10:46:14.086Z,8.55
2022-11-02T10:49:14.902Z,12.13
2022-11-02T10:52:02.066Z,11.48
2022-11-02T10:54:53.475Z,6.97
2022-11-02T10:57:40.811Z,6.90
2022-11-02T11:00:36.141Z,8.95
2022-11-02T11:03:23.253Z,9.95
2022-11-02T11:06:15.204Z,5.72
2022-11-02T11:09:32.716Z,7.32
2022-11-02T11:12:26.557Z,8.90
2022-11-02T11:21:42.378Z,10.38
2022-11-02T11:24:37.087Z,10.65
2022-11-02T11:27:25.562Z,7.10
2022-11-02T11:30:58.884Z,8.13
2022-11-02T11:34:02.044Z,9.90
2022-11-02T11:36:49.236Z,16.15
2022-11-02T11:39:39.524Z,6.70
2022-11-02T11:42:30.969Z,8.25
2022-11-02T11:45:22.908Z,6.05
2022-11-02T11:48:24.554Z,11.35
2022-11-02T11:51:30.032Z,8.50
2022-11-02T11:54:30.946Z,4.78
2022-11-02T11:57:34.750Z,3.17
2022-11-02T12:00:29.278Z,6.32
2022-11-02T12:03:18.898Z,6.15
2022-11-02T12:06:18.936Z,3.95
2022-11-02T12:09:34.294Z,14.80
2022-11-02T12:12:45.558Z,5.53
2022-11-02T12:15:42.040Z,6.03
2022-11-02T12:18:45.376Z,4.93
2022-11-02T12:22:05.853Z,6.13
2022-11-02T12:25:14.273Z,7.43
2022-11-02T12:28:20.720Z,9.57
2022-11-02T12:31:19.586Z,5.25
2022-11-02T12:34:15.228Z,4.75
2022-11-02T12:37:41.389Z,6.30
2022-11-02T12:41:03.753Z,8.20
2022-11-02T12:44:04.618Z,9.47
2022-11-02T12:47:35.808Z,8.02
2022-11-02T12:50:23.217Z,4.25
2022-11-02T12:53:25.662Z,3.83
2022-11-02T12:56:26.649Z,8.95
2022-11-02T12:59:26.202Z,6.55
2022-11-02T13:02:21.925Z,6.53
2022-11-02T13:05:18.388Z,6.25
2022-11-02T13:08:24.920Z,5.97
2022-11-02T13:11:34.448Z,4.55
2022-11-02T13:14:24.984Z,5.88
2022-11-02T13:17:22.790Z,5.60
2022-11-02T13:20:26.472Z,4.43
2022-11-02T13:23:29.249Z,5.50
2022-11-02T13:29:48.763Z,3.85
2022-11-02T13:32:49.919Z,6.20
2022-11-02T13:35:43.885Z,5.68
2022-11-02T13:38:53.503Z,6.45
2022-11-02T13:41:56.865Z,6.88
2022-11-02T13:45:15.062Z,5.10
2022-11-02T13:51:51.812Z,7.32
2022-11-02T13:54:41.448Z,5.85
2022-11-02T13:57:34.186Z,7.60
2022-11-02T14:03:20.936Z,7.43
2022-11-02T14:06:14.341Z,7.88
2022-11-02T14:09:10.477Z,4.88
2022-11-02T14:12:25.178Z,6.03
2022-11-02T14:15:15.409Z,6.65
2022-11-02T14:18:13.141Z,5.88
2022-11-02T14:21:38.594Z,3.97
2022-11-02T14:24:37.767Z,3.30
2022-11-02T14:27:24.971Z,4.13
2022-11-02T14:30:41.883Z,9.32
2022-11-02T14:34:08.924Z,5.15
2022-11-02T14:37:28.235Z,6.22
2022-11-02T14:40:34.795Z,7.00
2022-11-02T14:43:45.326Z,6.00
2022-11-02T14:46:56.761Z,5.80
2022-11-02T14:50:06.878Z,4.63
2022-11-02T14:53:09.193Z,6.82
2022-11-02T14:55:57.159Z,4.68
2022-11-02T14:58:55.460Z,7.07
2022-11-02T15:02:24.567Z,4.53
2022-11-02T15:05:23.880Z,7.28
2022-11-02T15:08:20.019Z,7.20
2022-11-02T15:11:44.775Z,6.95
2022-11-02T15:14:44.011Z,4.43
2022-11-02T15:17:31.583Z,3.97
2022-11-02T15:20:33.550Z,5.53
2022-11-02T15:23:31.581Z,7.83
2022-11-02T15:26:31.396Z,5.28
2022-11-02T15:29:27.556Z,19.08
2022-11-02T15:32:23.103Z,5.05
2022-11-02T15:35:36.109Z,7.63
2022-11-02T15:38:33.763Z,9.32
2022-11-02T15:41:48.933Z,6.57
2022-11-02T15:44:55.889Z,7.32
2022-11-02T15:48:08.273Z,8.70
2022-11-02T15:50:56.286Z,10.25
2022-11-02T15:54:15.990Z,6.65
2022-11-02T15:57:15.064Z,7.60
2022-11-02T16:00:14.570Z,12.10
2022-11-02T16:03:11.351Z,10.18
2022-11-02T16:06:03.216Z,6.93
2022-11-02T16:08:56.355Z,10.00
2022-11-02T16:11:43.532Z,4.85
2022-11-02T16:14:32.461Z,6.90
2022-11-02T16:17:27.799Z,8.00
2022-11-02T16:20:22.755Z,9.18
2022-11-02T16:23:22.355Z,15.43
2022-11-02T16:26:22.809Z,12.15
2022-11-02T16:29:10.719Z,8.38
2022-11-02T16:32:00.539Z,12.88
2022-11-02T16:34:48.021Z,8.90
2022-11-02T16:37:37.545Z,7.00
2022-11-02T16:40:24.874Z,11.10
2022-11-02T16:43:14.783Z,12.15
2022-11-02T16:46:04.263Z,12.10
2022-11-02T16:49:21.265Z,13.15
2022-11-02T16:52:39.032Z,10.38
2022-11-02T16:55:59.467Z,12.40
2022-11-02T16:58:55.790Z,14.18
2022-11-02T17:01:46.277Z,13.45
2022-11-02T17:04:44.014Z,16.15
2022-11-02T17:07:46.444Z,15.30
2022-11-02T17:10:36.327Z,14.25
2022-11-02T17:13:27.578Z,11.35
2022-11-02T17:16:24.053Z,8.68
2022-11-02T17:19:40.238Z,11.05
2022-11-02T17:22:31.444Z,8.82
2022-11-02T17:25:28.428Z,12.43
2022-11-02T17:28:45.550Z,11.15
2022-11-02T17:31:41.335Z,12.75
2022-11-02T17:34:31.968Z,14.32
2022-11-02T17:37:25.137Z,21.98
2022-11-02T17:40:13.002Z,13.93
2022-11-02T17:43:01.207Z,12.00
2022-11-02T17:45:59.457Z,14.18
2022-11-02T17:48:49.263Z,22.45
2022-11-02T17:51:37.395Z,23.38
2022-11-02T17:54:28.020Z,15.23
2022-11-02T17:57:16.235Z,24.35
2022-11-02T18:00:03.976Z,19.38
2022-11-02T18:02:54.712Z,28.92
2022-11-02T18:05:50.003Z,28.95
2022-11-02T18:09:01.922Z,22.17
2022-11-02T18:11:49.955Z,25.95
2022-11-02T18:14:40.680Z,23.75
2022-11-02T18:17:34.751Z,14.05
2022-11-02T18:20:26.144Z,17.98
2022-11-02T18:23:19.954Z,19.27
2022-11-02T18:26:09.770Z,20.08
2022-11-02T18:29:33.101Z,26.17
2022-11-02T18:35:13.718Z,29.00
2022-11-02T18:38:01.243Z,41.90
2022-11-02T18:40:48.411Z,35.20
2022-11-02T18:43:36.099Z,38.15
2022-11-02T18:46:26.631Z,25.20
2022-11-02T18:49:16.904Z,25.85
2022-11-02T18:52:04.335Z,37.00
2022-11-02T18:54:53.027Z,33.88
2022-11-02T18:57:40.367Z,30.75
2022-11-02T19:00:29.368Z,32.28
2022-11-02T19:03:19.054Z,30.05
2022-11-02T19:06:38.979Z,33.22
2022-11-02T19:09:29.539Z,25.63
2022-11-02T19:12:31.148Z,27.33
2022-11-02T19:15:18.699Z,22.75
2022-11-02T19:18:06.625Z,26.77
2022-11-02T19:20:54.051Z,28.08
2022-11-02T19:23:41.648Z,24.83
2022-11-02T19:26:29.177Z,24.63
2022-11-02T19:29:17.331Z,35.95
2022-11-02T19:32:08.156Z,23.13
2022-11-02T19:34:57.974Z,29.00
2022-11-02T19:37:47.006Z,20.38
2022-11-02T19:40:34.557Z,22.38
2022-11-02T19:43:21.993Z,27.55
2022-11-02T19:46:18.920Z,36.75
2022-11-02T19:49:11.102Z,26.48
2022-11-02T19:51:58.386Z,30.73
2022-11-02T19:54:47.316Z,18.67
2022-11-02T19:57:38.509Z,26.27
2022-11-02T20:00:30.736Z,21.95
2022-11-02T20:03:20.885Z,35.00
2022-11-02T20:06:13.772Z,33.13
2022-11-02T20:12:02.868Z,28.90
2022-11-02T20:14:50.823Z,28.42
2022-11-02T20:17:58.446Z,29.90
2022-11-02T20:20:46.430Z,30.48
2022-11-02T20:23:35.850Z,27.77
2022-11-02T20:26:26.814Z,26.83
2022-11-02T20:29:17.251Z,34.42
2022-11-02T20:32:10.415Z,32.10
2022-11-02T20:35:02.496Z,27.75
2022-11-02T20:37:49.904Z,22.48
2022-11-02T20:40:41.401Z,34.42
2022-11-02T20:43:29.194Z,26.38
2022-11-02T20:46:39.927Z,43.08
2022-11-02T20:49:49.496Z,38.97
2022-11-02T20:52:38.595Z,30.33
2022-11-02T20:55:26.412Z,31.77
2022-11-02T20:58:14.233Z,33.78
2022-11-02T21:01:06.700Z,42.50
2022-11-02T21:03:54.203Z,31.65
2022-11-02T21:06:41.688Z,40.03
2022-11-02T21:09:30.648Z,38.50
2022-11-02T21:12:36.895Z,43.13
2022-11-02T21:15:24.170Z,37.88
2022-11-02T21:18:11.813Z,36.88
2022-11-02T21:21:06.453Z,60.42
2022-11-02T21:23:55.992Z,52.58
2022-11-02T21:26:43.486Z,46.50
2022-11-02T21:29:33.578Z,45.08
2022-11-02T21:32:20.885Z,51.25
2022-11-02T21:35:08.903Z,49.55
2022-11-02T21:37:58.550Z,43.38
2022-11-02T21:40:47.616Z,37.17
2022-11-02T21:43:38.894Z,38.17
2022-11-02T21:46:27.114Z,36.92
2022-11-02T21:49:16.559Z,34.88
2022-11-02T21:52:06.369Z,37.65
2022-11-02T21:54:53.530Z,37.70
2022-11-02T21:57:40.868Z,37.05
2022-11-02T22:00:48.320Z,36.72
2022-11-02T22:03:38.219Z,32.10
2022-11-02T22:06:30.780Z,41.85
2022-11-02T22:09:21.260Z,34.65
2022-11-02T22:12:26.950Z,32.58
2022-11-02T22:15:16.495Z,34.22
2022-11-02T22:18:03.933Z,31.33
2022-11-02T22:20:58.458Z,36.92
2022-11-02T22:23:47.622Z,35.67
2022-11-02T22:26:36.460Z,38.97
2022-11-02T22:29:23.709Z,35.85
2022-11-02T22:32:11.019Z,32.63
2022-11-02T22:34:58.144Z,32.08
2022-11-02T22:38:06.044Z,30.67
2022-11-02T22:41:02.351Z,32.38
2022-11-02T22:43:55.537Z,30.75
2022-11-02T22:46:45.067Z,24.83
2022-11-02T22:49:32.674Z,31.83
2022-11-02T22:52:19.740Z,29.23
2022-11-02T22:55:07.055Z,34.95
2022-11-02T22:57:59.676Z,38.85
2022-11-02T23:00:47.157Z,24.65
2022-11-02T23:03:35.141Z,30.15
2022-11-02T23:06:23.692Z,46.30
2022-11-02T23:09:11.717Z,48.45
2022-11-02T23:11:58.799Z,51.50
2022-11-02T23:14:45.950Z,43.38
2022-11-02T23:17:33.103Z,40.80
2022-11-02T23:20:20.243Z,48.92
2022-11-02T23:23:30.800Z,40.78
2022-11-02T23:26:20.680Z,44.17
2022-11-02T23:29:26.929Z,30.95
2022-11-02T23:32:28.016Z,30.92
2022-11-02T23:35:33.624Z,36.88
2022-11-02T23:38:20.702Z,31.23
2022-11-02T23:41:08.164Z,35.22
2022-11-02T23:44:14.005Z,36.83
2022-11-02T23:47:01.300Z,30.63
2022-11-02T23:49:48.558Z,27.88
2022-11-02T23:52:55.044Z,33.15
2022-11-02T23:56:01.795Z,30.20
2022-11-02T23:59:06.470Z,35.58
